Time;durP1;ratioP1;P1;durP2;ratioP2;P2;SDS_P1;SDS_P2;PMS_P1;PMS_P2;Temp;Humidity;BMP_temperature;BMP_pressure;BME280_temperature;BME280_humidity;BME280_pressure;Samples;Min_cycle;Max_cycle;Signal;HPM_P1;HPM_P2
2023/07/30 00:01:30;;;;;;;0.00;0.00;;;;;;;17.33;60.11;99841.66;7352469;19;20045;-56
2023/07/30 00:03:55;;;;;;;0.00;0.00;;;;;;;17.31;60.46;99851.47;7347350;19;20007;-56
2023/07/30 00:06:21;;;;;;;0.10;0.10;;;;;;;17.29;60.00;99856.84;7350376;19;20766;-55
2023/07/30 00:08:46;;;;;;;0.10;0.10;;;;;;;17.23;60.82;99851.94;7351889;19;20968;-53
2023/07/30 00:11:11;;;;;;;0.00;0.00;;;;;;;17.28;60.28;99851.66;7355621;19;20014;-56
2023/07/30 00:13:37;;;;;;;0.00;0.00;;;;;;;17.28;60.04;99857.78;7352061;19;20031;-54
2023/07/30 00:16:02;;;;;;;0.10;0.10;;;;;;;17.28;60.28;99854.28;7350121;19;20703;-56
2023/07/30 00:18:28;;;;;;;0.00;0.00;;;;;;;17.28;60.76;99856.94;7355534;19;20014;-56
2023/07/30 00:20:53;;;;;;;0.00;0.00;;;;;;;17.29;60.72;99864.78;7352577;19;20822;-56
2023/07/30 00:23:18;;;;;;;0.00;0.00;;;;;;;17.30;61.13;99857.69;7351560;19;20463;-55
2023/07/30 00:25:44;;;;;;;0.10;0.10;;;;;;;17.28;60.50;99857.78;7355176;19;20010;-55
2023/07/30 00:28:09;;;;;;;0.00;0.00;;;;;;;17.31;60.53;99852.31;7354445;19;20022;-55
2023/07/30 00:30:35;;;;;;;0.00;0.00;;;;;;;17.30;60.67;99852.44;7356298;19;20016;-55
2023/07/30 00:33:00;;;;;;;0.00;0.00;;;;;;;17.29;60.61;99848.94;7359671;19;20030;-54
2023/07/30 00:35:25;;;;;;;0.00;0.00;;;;;;;17.31;60.26;99854.13;7357527;19;20093;-56
2023/07/30 00:37:51;;;;;;;0.00;0.00;;;;;;;17.29;60.80;99854.22;7358490;19;20344;-55
2023/07/30 00:40:17;;;;;;;0.10;0.10;;;;;;;17.30;60.33;99868.25;7361603;19;20010;-55
2023/07/30 00:42:43;;;;;;;0.03;0.03;;;;;;;17.29;60.78;99863.94;7358621;19;20042;-55
2023/07/30 00:45:09;;;;;;;0.00;0.00;;;;;;;17.29;61.22;99866.56;7360480;19;20011;-55
2023/07/30 00:47:36;;;;;;;0.00;0.00;;;;;;;17.25;61.10;99872.97;7359474;19;20022;-54
2023/07/30 00:50:01;;;;;;;0.10;0.10;;;;;;;17.28;60.85;99860.41;7356606;19;21975;-53
2023/07/30 00:52:28;;;;;;;0.10;0.10;;;;;;;17.27;61.35;99868.44;7362496;19;20078;-55
2023/07/30 00:54:56;;;;;;;0.10;0.10;;;;;;;17.31;60.58;99868.16;7355704;19;20010;-55
2023/07/30 00:57:23;;;;;;;0.00;0.00;;;;;;;17.31;61.06;99868.16;7358610;19;20019;-53
2023/07/30 00:59:49;;;;;;;0.00;0.00;;;;;;;17.22;61.09;99850.25;7354505;19;21244;-54
2023/07/30 01:02:14;;;;;;;0.00;0.00;;;;;;;17.34;60.44;99873.25;7360893;19;20047;-55
2023/07/30 01:04:40;;;;;;;0.00;0.00;;;;;;;17.35;61.48;99884.66;7355271;19;20011;-55
2023/07/30 01:07:06;;;;;;;0.00;0.00;;;;;;;17.35;61.48;99874.94;7359359;19;20743;-56
2023/07/30 01:09:33;;;;;;;0.10;0.10;;;;;;;17.37;61.19;99869.53;7360462;19;21186;-56
2023/07/30 01:12:00;;;;;;;0.00;0.00;;;;;;;17.32;61.27;99871.63;7360287;19;21095;-55
2023/07/30 01:14:26;;;;;;;0.10;0.10;;;;;;;17.28;61.44;99854.28;7353151;19;20006;-55
2023/07/30 01:16:52;;;;;;;0.00;0.00;;;;;;;17.34;61.29;99867.13;7361718;19;20021;-56
2023/07/30 01:19:18;;;;;;;0.00;0.00;;;;;;;17.33;61.57;99870.69;7357014;19;20572;-56
2023/07/30 01:21:43;;;;;;;0.00;0.00;;;;;;;17.32;60.87;99871.63;7358424;19;20010;-55
2023/07/30 01:24:08;;;;;;;0.05;0.05;;;;;;;17.23;61.54;99869.56;7358365;19;20015;-56
2023/07/30 01:26:47;;;;;;;0.00;0.00;;;;;;;17.31;60.35;99897.19;7359020;19;20006;-56
2023/07/30 01:29:22;;;;;;;0.00;0.00;;;;;;;17.30;60.76;99887.56;7357845;19;20010;-56
2023/07/30 01:31:56;;;;;;;0.10;0.10;;;;;;;17.30;60.71;99892.00;7358752;19;20015;-56
2023/07/30 01:34:27;;;;;;;0.10;0.10;;;;;;;17.27;62.33;99887.75;7358318;19;20818;-54
2023/07/30 01:36:54;;;;;;;0.10;0.10;;;;;;;17.26;62.68;99886.06;7357851;19;20147;-55
2023/07/30 01:39:20;;;;;;;0.00;0.00;;;;;;;17.24;62.05;99887.97;7356984;19;20011;-56
2023/07/30 01:41:46;;;;;;;0.05;0.05;;;;;;;17.24;62.82;99887.97;7358181;19;20102;-53
2023/07/30 01:44:11;;;;;;;0.00;0.00;;;;;;;17.23;62.74;99896.81;7358554;19;20034;-56
2023/07/30 01:46:37;;;;;;;0.00;0.00;;;;;;;17.24;61.97;99892.41;7360548;19;20090;-55
2023/07/30 01:49:02;;;;;;;0.00;0.00;;;;;;;17.11;62.38;99872.06;7356424;19;20470;-55
2023/07/30 01:51:28;;;;;;;0.00;0.00;;;;;;;17.20;63.05;99896.16;7357674;19;20013;-56
2023/07/30 01:53:54;;;;;;;0.00;0.00;;;;;;;17.18;61.94;99898.03;7359025;19;20019;-55
2023/07/30 01:56:19;;;;;;;0.00;0.00;;;;;;;17.14;62.39;99892.13;7358169;19;20015;-55
2023/07/30 01:58:45;;;;;;;0.00;0.00;;;;;;;17.15;61.98;99899.09;7352399;19;20014;-54
2023/07/30 02:01:10;;;;;;;0.00;0.00;;;;;;;17.13;62.41;99893.06;7353089;19;20018;-54
2023/07/30 02:03:35;;;;;;;0.10;0.10;;;;;;;17.12;62.81;99894.00;7354580;19;20125;-54
2023/07/30 02:06:01;;;;;;;0.10;0.10;;;;;;;17.11;61.43;99902.88;7357908;19;20011;-55
2023/07/30 02:08:26;;;;;;;0.00;0.00;;;;;;;17.09;62.84;99907.41;7356625;19;20027;-56
2023/07/30 02:10:56;;;;;;;0.00;0.00;;;;;;;17.10;62.23;99909.94;7356279;19;20014;-56
2023/07/30 02:13:22;;;;;;;0.10;0.10;;;;;;;17.08;62.08;99905.69;7355450;19;20564;-55
2023/07/30 02:15:47;;;;;;;0.10;0.10;;;;;;;17.08;62.74;99908.31;7357111;19;20022;-55
2023/07/30 02:18:12;;;;;;;0.03;0.03;;;;;;;17.05;62.69;99919.06;7356903;19;20006;-56
2023/07/30 02:20:38;;;;;;;0.10;0.10;;;;;;;17.07;62.58;99920.66;7357149;19;20011;-55
2023/07/30 02:23:03;;;;;;;0.03;0.03;;;;;;;17.07;62.05;99931.22;7353948;19;20033;-52
2023/07/30 02:25:29;;;;;;;0.00;0.00;;;;;;;17.04;63.10;99922.66;7354592;19;20018;-55
2023/07/30 02:27:54;;;;;;;0.00;0.00;;;;;;;17.03;62.81;99921.81;7355335;19;20062;-56
2023/07/30 02:30:20;;;;;;;0.00;0.00;;;;;;;17.06;63.18;99936.59;7349442;19;20553;-54
2023/07/30 02:32:45;;;;;;;0.05;0.05;;;;;;;17.05;63.37;99934.91;7355919;19;20018;-55
2023/07/30 02:35:10;;;;;;;0.00;0.00;;;;;;;17.02;63.39;99935.06;7353890;19;20034;-56
2023/07/30 02:37:36;;;;;;;0.00;0.00;;;;;;;17.04;63.84;99935.84;7353168;19;20031;-53
2023/07/30 02:40:04;;;;;;;0.00;0.00;;;;;;;17.04;63.32;99938.50;7349004;19;20007;-54
2023/07/30 02:42:30;;;;;;;0.00;0.00;;;;;;;17.05;63.21;99932.25;7355476;19;20778;-54
2023/07/30 02:44:55;;;;;;;0.00;0.00;;;;;;;17.04;63.24;99931.41;7357452;19;20006;-55
2023/07/30 02:47:21;;;;;;;0.08;0.08;;;;;;;17.05;63.50;99941.03;7352554;19;20022;-52
2023/07/30 02:49:46;;;;;;;0.00;0.00;;;;;;;17.05;63.17;99934.91;7354626;19;20786;-54
2023/07/30 02:52:11;;;;;;;0.00;0.00;;;;;;;17.05;63.53;99940.19;7352983;19;20026;-55
2023/07/30 02:54:37;;;;;;;0.03;0.03;;;;;;;17.04;63.58;99935.84;7355578;19;20010;-56
2023/07/30 02:57:03;;;;;;;0.05;0.05;;;;;;;17.03;63.38;99932.38;7354947;19;20024;-55
2023/07/30 02:59:28;;;;;;;0.05;0.05;;;;;;;17.01;63.51;99939.50;7355225;19;20815;-56
2023/07/30 03:01:53;;;;;;;0.00;0.00;;;;;;;17.01;63.10;99930.75;7349032;19;20015;-54
2023/07/30 03:04:19;;;;;;;0.10;0.10;;;;;;;17.01;62.49;99928.13;7353796;19;20025;-56
2023/07/30 03:06:44;;;;;;;0.10;0.10;;;;;;;16.98;63.81;99923.00;7351355;19;20072;-55
2023/07/30 03:09:09;;;;;;;0.10;0.10;;;;;;;16.97;63.26;99929.25;7354444;19;20033;-52
2023/07/30 03:11:35;;;;;;;0.10;0.10;;;;;;;16.95;63.17;99923.22;7356114;19;20021;-56
2023/07/30 03:14:00;;;;;;;0.00;0.00;;;;;;;16.94;63.67;99932.09;7349934;19;20030;-55
2023/07/30 03:16:26;;;;;;;0.05;0.05;;;;;;;16.94;62.90;99927.66;7355811;19;20022;-53
2023/07/30 03:18:51;;;;;;;0.10;0.10;;;;;;;16.94;63.62;99932.94;7354548;19;20014;-54
2023/07/30 03:21:16;;;;;;;0.10;0.10;;;;;;;16.93;63.81;99923.31;7329129;19;20012;-56
2023/07/30 03:23:44;;;;;;;0.10;0.10;;;;;;;16.92;64.17;99923.41;7353040;19;20010;-53
2023/07/30 03:26:10;;;;;;;0.05;0.05;;;;;;;16.90;63.75;99920.03;7352582;19;20086;-54
2023/07/30 03:28:35;;;;;;;0.10;0.10;;;;;;;16.89;63.38;99928.88;7353954;19;20006;-54
2023/07/30 03:31:01;;;;;;;0.10;0.10;;;;;;;16.93;63.43;99943.56;7355160;19;20021;-55
2023/07/30 03:33:26;;;;;;;0.10;0.10;;;;;;;16.93;63.57;99946.19;7355639;19;20010;-55
2023/07/30 03:35:51;;;;;;;0.00;0.00;;;;;;;16.93;63.88;99940.91;7354977;19;20336;-54
2023/07/30 03:38:17;;;;;;;0.00;0.00;;;;;;;16.94;63.86;99932.09;7352772;19;20002;-52
2023/07/30 03:40:42;;;;;;;0.10;0.10;;;;;;;16.93;63.46;99933.00;7354485;19;20855;-56
2023/07/30 03:43:08;;;;;;;0.00;0.00;;;;;;;16.95;63.97;99939.06;7352667;19;20021;-55
2023/07/30 03:45:33;;;;;;;0.10;0.10;;;;;;;16.96;63.86;99940.75;7355889;19;20026;-53
2023/07/30 03:47:58;;;;;;;0.10;0.10;;;;;;;16.94;64.54;99929.44;7355517;19;20010;-54
2023/07/30 03:50:24;;;;;;;0.10;0.10;;;;;;;16.93;63.95;99935.63;7353329;19;20025;-50
2023/07/30 03:52:49;;;;;;;0.10;0.10;;;;;;;16.86;64.39;99925.47;7355482;19;20016;-55
2023/07/30 03:55:15;;;;;;;0.00;0.00;;;;;;;16.89;63.92;99947.34;7349457;19;20014;-56
2023/07/30 03:57:40;;;;;;;0.03;0.03;;;;;;;16.85;64.31;99949.31;7355952;19;20129;-55
2023/07/30 04:00:07;;;;;;;0.00;0.00;;;;;;;16.71;64.27;99936.94;7353168;19;20895;-55
2023/07/30 04:02:32;;;;;;;0.00;0.00;;;;;;;16.77;64.11;99952.38;7352562;19;20006;-55
2023/07/30 04:04:58;;;;;;;0.00;0.00;;;;;;;16.74;63.76;99955.22;7351415;19;20022;-55
2023/07/30 04:07:23;;;;;;;0.05;0.05;;;;;;;16.60;64.22;99944.63;7353895;19;20014;-54
2023/07/30 04:09:48;;;;;;;0.00;0.00;;;;;;;16.62;64.33;99963.81;7346826;19;20022;-53
2023/07/30 04:12:14;;;;;;;0.00;0.00;;;;;;;16.60;64.91;99949.91;7351328;19;20010;-53
2023/07/30 04:14:39;;;;;;;0.08;0.08;;;;;;;16.61;64.15;99959.50;7350448;19;20398;-55
2023/07/30 04:17:05;;;;;;;0.10;0.10;;;;;;;16.59;64.72;99958.75;7355862;19;20034;-54
2023/07/30 04:19:30;;;;;;;0.10;0.10;;;;;;;16.56;64.52;99964.19;7353630;19;20010;-56
2023/07/30 04:21:56;;;;;;;0.00;0.00;;;;;;;16.47;64.36;99964.72;7356788;19;20467;-54
2023/07/30 04:24:21;;;;;;;0.00;0.00;;;;;;;16.52;64.63;99973.22;7350425;19;20375;-56
2023/07/30 04:26:46;;;;;;;0.00;0.00;;;;;;;16.48;64.75;99972.56;7354831;19;20089;-55
2023/07/30 04:29:13;;;;;;;0.10;0.10;;;;;;;16.41;65.01;99962.47;7350315;19;20018;-54
2023/07/30 04:31:39;;;;;;;0.10;0.10;;;;;;;16.46;64.29;99969.16;7352630;19;20115;-53
2023/07/30 04:34:04;;;;;;;0.00;0.00;;;;;;;16.46;65.21;99978.84;7348779;19;20006;-55
2023/07/30 04:36:30;;;;;;;0.00;0.00;;;;;;;16.46;65.21;99984.13;7352912;19;20011;-54
2023/07/30 04:38:55;;;;;;;0.00;0.00;;;;;;;16.46;64.85;99984.13;7347840;19;20018;-54
2023/07/30 04:41:21;;;;;;;0.00;0.00;;;;;;;16.43;64.77;99995.72;7354651;19;20015;-55
2023/07/30 04:43:46;;;;;;;0.08;0.08;;;;;;;16.46;65.36;99984.13;7349946;19;20006;-55
2023/07/30 04:46:12;;;;;;;0.00;0.00;;;;;;;16.50;64.47;99996.19;7349110;19;20014;-56
2023/07/30 04:48:37;;;;;;;0.10;0.10;;;;;;;16.51;65.12;99989.97;7351900;19;20877;-56
2023/07/30 04:51:03;;;;;;;0.00;0.00;;;;;;;16.50;64.55;99985.66;7352085;19;20490;-54
2023/07/30 04:53:29;;;;;;;0.00;0.00;;;;;;;16.38;65.51;99960.03;7352522;19;20035;-55
2023/07/30 04:55:57;;;;;;;0.10;0.10;;;;;;;16.54;64.80;99992.44;7350618;19;20018;-54
2023/07/30 04:58:23;;;;;;;0.00;0.00;;;;;;;16.52;65.16;99989.03;7350410;19;20074;-56
2023/07/30 05:00:49;;;;;;;0.10;0.10;;;;;;;16.52;65.25;99991.66;7351010;19;20552;-56
2023/07/30 05:03:14;;;;;;;0.10;0.10;;;;;;;16.50;65.37;99998.81;7352647;19;20070;-56
2023/07/30 05:05:40;;;;;;;0.10;0.10;;;;;;;16.53;65.36;100001.28;7344232;19;20010;-55
2023/07/30 05:08:06;;;;;;;0.00;0.00;;;;;;;16.56;65.45;99991.41;7352938;19;20033;-55
2023/07/30 05:10:31;;;;;;;0.00;0.00;;;;;;;16.59;64.94;99990.38;7351594;19;20029;-54
2023/07/30 05:12:56;;;;;;;0.10;0.10;;;;;;;16.60;64.13;100002.63;7354801;19;20062;-55
2023/07/30 05:15:22;;;;;;;0.08;0.08;;;;;;;16.59;65.17;100003.56;7358235;19;20047;-55
2023/07/30 05:17:47;;;;;;;0.00;0.00;;;;;;;16.59;64.80;100006.19;7354851;19;20019;-55
2023/07/30 05:20:13;;;;;;;0.10;0.10;;;;;;;16.61;65.22;99993.75;7360877;19;20077;-55
2023/07/30 05:22:38;;;;;;;0.10;0.10;;;;;;;16.55;64.52;99994.13;7352005;19;20007;-55
2023/07/30 05:25:04;;;;;;;0.00;0.00;;;;;;;16.63;65.18;100002.44;7362069;19;20026;-56
2023/07/30 05:27:31;;;;;;;0.10;0.10;;;;;;;16.65;64.64;100005.84;7350234;19;20010;-55
2023/07/30 05:29:56;;;;;;;0.10;0.10;;;;;;;16.57;64.77;99997.50;7360484;19;20082;-55
2023/07/30 05:32:22;;;;;;;0.10;0.10;;;;;;;16.67;64.62;100019.75;7354798;19;20010;-55
2023/07/30 05:34:47;;;;;;;0.05;0.05;;;;;;;16.68;64.68;100010.09;7360138;19;20015;-56
2023/07/30 05:37:12;;;;;;;0.08;0.08;;;;;;;16.65;64.25;100021.66;7357728;19;20018;-53
2023/07/30 05:39:38;;;;;;;0.10;0.10;;;;;;;16.68;64.52;100020.63;7360558;19;20497;-54
2023/07/30 05:42:03;;;;;;;0.10;0.10;;;;;;;16.70;64.55;100030.13;7354973;19;20019;-54
2023/07/30 05:44:29;;;;;;;0.00;0.00;;;;;;;16.70;64.59;100024.88;7358633;19;20006;-55
2023/07/30 05:46:54;;;;;;;0.10;0.10;;;;;;;16.74;64.17;100026.41;7356369;19;20024;-56
2023/07/30 05:49:20;;;;;;;0.00;0.00;;;;;;;16.73;64.52;100022.09;7359521;19;20492;-54
2023/07/30 05:51:45;;;;;;;0.10;0.10;;;;;;;16.76;64.32;100034.22;7356107;19;20008;-54
2023/07/30 05:54:12;;;;;;;0.03;0.03;;;;;;;16.77;64.67;100031.50;7358058;19;20089;-56
2023/07/30 05:56:37;;;;;;;0.10;0.10;;;;;;;16.77;64.76;100026.22;7346571;19;20014;-54
2023/07/30 05:59:03;;;;;;;0.10;0.10;;;;;;;16.81;64.15;100026.91;7353849;19;20477;-55
2023/07/30 06:01:28;;;;;;;0.10;0.10;;;;;;;16.81;64.62;100027.75;7355939;19;20018;-53
2023/07/30 06:03:54;;;;;;;0.10;0.10;;;;;;;16.82;64.71;100033.84;7358407;19;20022;-55
2023/07/30 06:06:26;;;;;;;0.00;0.00;;;;;;;16.85;64.53;100038.97;7354858;19;20007;-55
2023/07/30 06:08:52;;;;;;;0.00;0.00;;;;;;;16.86;65.03;100041.50;7355598;19;20070;-56
2023/07/30 06:11:18;;;;;;;0.08;0.08;;;;;;;16.79;64.48;100034.91;7356078;19;20748;-56
2023/07/30 06:13:43;;;;;;;0.00;0.00;;;;;;;16.89;64.52;100044.91;7341456;19;20015;-53
2023/07/30 06:16:10;;;;;;;0.00;0.00;;;;;;;16.80;64.64;100025.19;7354300;19;20018;-55
2023/07/30 06:18:35;;;;;;;0.10;0.10;;;;;;;16.96;64.51;100040.97;7337969;19;20019;-55
2023/07/30 06:21:01;;;;;;;0.10;0.10;;;;;;;16.93;64.54;100041.13;7354110;19;20029;-54
2023/07/30 06:23:26;;;;;;;0.10;0.10;;;;;;;16.91;64.26;100032.47;7355179;19;20025;-55
2023/07/30 06:25:52;;;;;;;0.00;0.00;;;;;;;17.02;64.47;100041.44;7355389;19;20821;-54
2023/07/30 06:28:17;;;;;;;0.00;0.00;;;;;;;17.05;64.50;100051.81;7348831;19;20022;-56
2023/07/30 06:30:42;;;;;;;0.10;0.10;;;;;;;17.06;64.78;100042.09;7356749;19;20011;-54
2023/07/30 06:33:08;;;;;;;0.00;0.00;;;;;;;17.09;64.82;100049.84;7355749;19;20499;-53
2023/07/30 06:35:34;;;;;;;0.10;0.10;;;;;;;16.92;64.52;100023.63;7352603;19;20066;-56
2023/07/30 06:37:59;;;;;;;0.00;0.00;;;;;;;17.11;64.24;100061.16;7354394;19;20006;-55
2023/07/30 06:40:25;;;;;;;0.08;0.08;;;;;;;17.09;64.40;100047.22;7352184;19;20023;-56
2023/07/30 06:42:50;;;;;;;0.00;0.00;;;;;;;17.12;64.62;100057.56;7356347;19;20140;-54
2023/07/30 06:45:15;;;;;;;0.10;0.10;;;;;;;17.13;64.61;100059.25;7352054;19;20668;-54
2023/07/30 06:47:41;;;;;;;0.00;0.00;;;;;;;17.15;64.08;100046.84;7353361;19;20014;-54
2023/07/30 06:50:09;;;;;;;0.00;0.00;;;;;;;17.14;64.09;100044.31;7356003;19;20021;-53
2023/07/30 06:52:35;;;;;;;0.05;0.05;;;;;;;17.17;64.38;100039.66;7355470;19;20010;-54
2023/07/30 06:55:02;;;;;;;0.10;0.10;;;;;;;17.17;64.24;100044.94;7351158;19;20010;-54
2023/07/30 06:57:30;;;;;;;0.10;0.10;;;;;;;17.21;64.14;100045.63;7354160;19;20018;-56
2023/07/30 06:59:57;;;;;;;0.00;0.00;;;;;;;17.18;64.57;100041.34;7356508;19;20707;-55
2023/07/30 07:02:22;;;;;;;0.10;0.10;;;;;;;17.28;64.52;100053.06;7351509;19;20014;-56
2023/07/30 07:04:48;;;;;;;0.10;0.10;;;;;;;17.34;64.19;100063.25;7350259;19;20014;-56
2023/07/30 07:07:13;;;;;;;0.10;0.10;;;;;;;17.41;64.16;100068.16;7353995;19;20305;-54
2023/07/30 07:09:39;;;;;;;0.00;0.00;;;;;;;17.45;64.55;100064.41;7355404;19;20022;-55
2023/07/30 07:12:05;;;;;;;0.10;0.10;;;;;;;17.51;64.58;100083.34;7354764;19;20053;-55
2023/07/30 07:14:30;;;;;;;0.00;0.00;;;;;;;17.56;63.74;100075.13;7352538;19;20030;-55
2023/07/30 07:16:56;;;;;;;0.10;0.10;;;;;;;17.62;64.03;100072.13;7357422;19;20584;-55
2023/07/30 07:19:22;;;;;;;0.00;0.00;;;;;;;17.69;63.87;100076.09;7354178;19;20021;-54
2023/07/30 07:21:47;;;;;;;0.00;0.00;;;;;;;17.74;63.63;100081.97;7346199;19;20081;-55
2023/07/30 07:24:12;;;;;;;0.00;0.00;;;;;;;17.79;63.57;100087.81;7354611;19;20013;-56
2023/07/30 07:26:38;;;;;;;0.00;0.00;;;;;;;17.83;63.41;100076.09;7355957;19;20689;-55
2023/07/30 07:29:03;;;;;;;0.00;0.00;;;;;;;17.91;63.39;100085.34;7349098;19;20378;-54
2023/07/30 07:31:29;;;;;;;0.10;0.10;;;;;;;17.95;63.36;100082.41;7355118;19;20034;-54
2023/07/30 07:33:55;;;;;;;0.00;0.00;;;;;;;17.92;63.22;100064.09;7353350;19;20852;-56
2023/07/30 07:36:20;;;;;;;0.00;0.00;;;;;;;18.08;62.90;100090.38;7351959;19;20111;-56
2023/07/30 07:38:46;;;;;;;0.10;0.10;;;;;;;18.09;62.63;100076.22;7336091;19;20576;-55
2023/07/30 07:41:16;;;;;;;0.10;0.10;;;;;;;18.22;62.33;100086.88;7355763;19;20478;-55
2023/07/30 07:43:42;;;;;;;0.10;0.10;;;;;;;18.26;62.63;100089.22;7350616;19;20766;-56
2023/07/30 07:46:13;;;;;;;0.00;0.00;;;;;;;18.33;61.99;100090.50;7352608;19;20038;-55
2023/07/30 07:48:42;;;;;;;0.00;0.00;;;;;;;18.39;62.17;100083.97;7351666;19;20010;-54
2023/07/30 07:51:10;;;;;;;0.00;0.00;;;;;;;18.47;61.66;100092.28;7353811;19;20016;-54
2023/07/30 07:53:36;;;;;;;0.00;0.00;;;;;;;18.54;62.06;100087.41;7349687;19;20026;-54
2023/07/30 07:56:01;;;;;;;0.03;0.03;;;;;;;18.59;61.34;100090.63;7353624;19;20037;-55
2023/07/30 07:58:28;;;;;;;0.00;0.00;;;;;;;18.67;61.11;100086.53;7352609;19;20113;-55
2023/07/30 08:00:57;;;;;;;0.00;0.00;;;;;;;18.79;60.81;100092.81;7351017;19;20006;-55
2023/07/30 08:03:23;;;;;;;0.00;0.00;;;;;;;18.82;60.40;100097.91;7354419;19;20023;-56
2023/07/30 08:05:49;;;;;;;0.00;0.00;;;;;;;18.87;60.22;100094.97;7350607;19;20010;-54
2023/07/30 08:08:15;;;;;;;0.00;0.00;;;;;;;18.91;60.30;100086.72;7350348;19;20031;-56
2023/07/30 08:10:46;;;;;;;0.00;0.00;;;;;;;18.97;60.39;100089.91;7351937;19;20010;-56
2023/07/30 08:13:13;;;;;;;0.00;0.00;;;;;;;19.01;60.57;100080.78;7352299;19;20011;-55
2023/07/30 08:15:38;;;;;;;0.10;0.10;;;;;;;19.05;60.45;100090.22;7352525;19;20747;-53
2023/07/30 08:18:04;;;;;;;0.10;0.10;;;;;;;19.11;60.49;100093.31;7351725;19;20006;-54
2023/07/30 08:20:29;;;;;;;0.00;0.00;;;;;;;19.16;59.98;100085.06;7345876;19;20026;-55
2023/07/30 08:22:55;;;;;;;0.00;0.00;;;;;;;19.22;59.84;100097.03;7352485;19;21075;-56
2023/07/30 08:25:20;;;;;;;0.10;0.10;;;;;;;19.28;59.67;100093.97;7349555;19;20042;-56
2023/07/30 08:27:46;;;;;;;0.00;0.00;;;;;;;19.33;59.60;100090.03;7345579;19;20732;-55
2023/07/30 08:30:12;;;;;;;0.00;0.00;;;;;;;19.41;59.09;100084.22;7351286;19;20367;-55
2023/07/30 08:32:37;;;;;;;0.00;0.00;;;;;;;19.50;58.75;100080.94;7348265;19;20082;-52
2023/07/30 08:35:04;;;;;;;0.10;0.10;;;;;;;19.54;57.93;100074.47;7348614;19;20030;-56
2023/07/30 08:37:29;;;;;;;0.05;0.05;;;;;;;19.67;58.22;100095.69;7351134;19;20950;-56
2023/07/30 08:39:55;;;;;;;0.10;0.10;;;;;;;19.70;58.06;100085.72;7354276;19;20037;-55
2023/07/30 08:42:20;;;;;;;0.00;0.00;;;;;;;19.79;57.83;100097.47;7347411;19;20011;-54
2023/07/30 08:44:46;;;;;;;0.00;0.00;;;;;;;19.87;57.87;100088.97;7346443;19;19999;-55
2023/07/30 08:47:11;;;;;;;0.00;0.00;;;;;;;19.85;58.21;100078.47;7347391;19;20014;-56
2023/07/30 08:49:37;;;;;;;0.10;0.10;;;;;;;19.86;58.28;100069.56;7354379;19;20465;-54
2023/07/30 08:52:03;;;;;;;0.00;0.00;;;;;;;20.05;57.10;100092.13;7357684;19;20027;-56
2023/07/30 08:54:31;;;;;;;0.10;0.10;;;;;;;20.13;57.32;100089.78;7356269;19;20458;-55
2023/07/30 08:57:01;;;;;;;0.10;0.10;;;;;;;20.14;57.51;100083.50;7358441;19;20020;-56
2023/07/30 08:59:30;;;;;;;0.10;0.10;;;;;;;20.21;56.62;100090.88;7355685;19;20861;-56
2023/07/30 09:01:58;;;;;;;0.10;0.10;;;;;;;20.26;56.50;100092.38;7356713;19;20010;-55
2023/07/30 09:04:23;;;;;;;0.10;0.10;;;;;;;20.30;56.55;100092.03;7358353;19;20007;-55
2023/07/30 09:06:50;;;;;;;0.00;0.00;;;;;;;20.35;56.01;100097.84;7358657;19;20794;-54
2023/07/30 09:09:15;;;;;;;0.08;0.08;;;;;;;20.37;55.99;100101.22;7358499;19;20030;-55
2023/07/30 09:11:41;;;;;;;0.00;0.00;;;;;;;20.40;56.28;100095.72;7357359;19;20741;-56
2023/07/30 09:14:07;;;;;;;0.10;0.10;;;;;;;20.32;56.02;100084.81;7356997;19;20010;-56
2023/07/30 09:16:33;;;;;;;0.10;0.10;;;;;;;20.46;55.02;100095.28;7357130;19;20014;-56
2023/07/30 09:18:58;;;;;;;0.10;0.10;;;;;;;20.47;55.26;100099.63;7355652;19;20497;-55
2023/07/30 09:21:31;;;;;;;0.00;0.00;;;;;;;20.55;56.03;100103.53;7347009;19;20494;-54
2023/07/30 09:23:57;;;;;;;0.10;0.10;;;;;;;20.53;54.86;100110.75;7348493;19;20673;-56
2023/07/30 09:26:23;;;;;;;0.10;0.10;;;;;;;20.51;54.54;100112.66;7353573;19;25338;-55
2023/07/30 09:28:48;;;;;;;0.00;0.00;;;;;;;20.51;55.27;100112.66;7353242;19;20596;-55
2023/07/30 09:31:14;;;;;;;0.10;0.10;;;;;;;20.46;54.71;100116.50;7353187;19;20015;-56
2023/07/30 09:33:42;;;;;;;0.00;0.00;;;;;;;20.45;54.99;100108.63;7352490;19;20014;-56
2023/07/30 09:36:09;;;;;;;0.10;0.10;;;;;;;20.37;55.03;100106.53;7354547;19;20880;-56
2023/07/30 09:38:42;;;;;;;0.10;0.10;;;;;;;20.41;54.99;100112.47;7353364;19;20011;-54
2023/07/30 09:41:09;;;;;;;0.05;0.05;;;;;;;20.33;54.59;100109.53;7360010;19;20011;-56
2023/07/30 09:43:35;;;;;;;0.10;0.10;;;;;;;20.30;55.01;100115.06;7354639;19;20026;-56
2023/07/30 09:46:02;;;;;;;0.10;0.10;;;;;;;20.29;55.30;100119.50;7354270;19;20028;-54
2023/07/30 09:48:29;;;;;;;;;;;;;;;20.36;55.78;100110.16;7358143;19;20011;-55
2023/07/30 09:50:55;;;;;;;0.10;0.10;;;;;;;20.30;54.57;100105.28;7352743;19;20798;-55
2023/07/30 09:53:21;;;;;;;0.08;0.08;;;;;;;20.26;55.03;100109.13;7354381;19;20461;-55
2023/07/30 09:55:46;;;;;;;0.10;0.10;;;;;;;20.28;54.88;100109.88;7358270;19;20037;-55
2023/07/30 09:58:12;;;;;;;0.10;0.10;;;;;;;20.26;54.61;100114.41;7355973;19;20614;-55
2023/07/30 10:00:37;;;;;;;0.10;0.10;;;;;;;20.25;55.43;100127.81;7352621;19;20465;-55
2023/07/30 10:03:06;;;;;;;0.00;0.00;;;;;;;20.21;55.83;100122.69;7354259;19;20029;-55
2023/07/30 10:05:34;;;;;;;0.00;0.00;;;;;;;20.17;56.77;100136.28;7353214;19;20493;-54
2023/07/30 10:08:05;;;;;;;0.10;0.10;;;;;;;20.00;57.84;100112.81;7356775;19;20699;-56
2023/07/30 10:10:31;;;;;;;0.10;0.10;;;;;;;20.01;58.00;100127.75;7356811;19;20011;-56
2023/07/30 10:13:03;;;;;;;0.10;0.10;;;;;;;19.96;57.30;100128.91;7357565;19;20024;-55
2023/07/30 10:15:28;;;;;;;0.10;0.10;;;;;;;19.88;57.63;100131.28;7352788;19;20465;-53
2023/07/30 10:17:56;;;;;;;0.00;0.00;;;;;;;19.85;59.36;100136.78;7358363;19;20010;-55
2023/07/30 10:20:25;;;;;;;0.08;0.08;;;;;;;19.76;60.43;100126.81;7355814;19;20031;-55
2023/07/30 10:22:55;;;;;;;0.10;0.10;;;;;;;19.68;60.06;100129.16;7355629;19;20844;-56
2023/07/30 10:25:25;;;;;;;0.10;0.10;;;;;;;19.58;60.73;100128.09;7356235;19;20018;-56
2023/07/30 10:27:52;;;;;;;0.00;0.00;;;;;;;19.41;61.28;100115.97;7357367;19;20012;-55
2023/07/30 10:30:19;;;;;;;0.10;0.10;;;;;;;19.42;60.83;100128.28;7353562;19;20770;-56
2023/07/30 10:32:59;;;;;;;0.10;0.10;;;;;;;19.40;59.74;100132.84;7354948;19;20006;-56
2023/07/30 10:35:42;;;;;;;0.03;0.03;;;;;;;19.31;59.50;100121.09;7354527;19;20047;-55
2023/07/30 10:38:24;;;;;;;0.10;0.10;;;;;;;19.25;60.49;100126.78;7354935;19;20025;-55
2023/07/30 10:41:09;;;;;;;0.00;0.00;;;;;;;19.22;59.48;100126.16;7355911;19;20030;-56
2023/07/30 10:43:47;;;;;;;0.10;0.10;;;;;;;19.20;59.59;100134.19;7354462;19;21064;-56
2023/07/30 10:46:15;;;;;;;0.05;0.05;;;;;;;19.16;61.72;100122.13;7352383;19;20010;-54
2023/07/30 10:48:43;;;;;;;0.10;0.10;;;;;;;19.20;62.10;100118.31;7355166;19;20833;-56
2023/07/30 10:51:13;;;;;;;0.10;0.10;;;;;;;19.24;61.87;100127.72;7351829;19;20014;-53
2023/07/30 10:53:42;;;;;;;0.10;0.10;;;;;;;19.31;62.16;100115.78;7355065;19;20015;-55
2023/07/30 10:56:08;;;;;;;0.10;0.10;;;;;;;19.33;61.95;100108.59;7353697;19;20369;-56
2023/07/30 10:58:35;;;;;;;0.10;0.10;;;;;;;19.44;61.12;100108.69;7351683;19;20017;-56
2023/07/30 11:01:08;;;;;;;0.10;0.10;;;;;;;19.54;61.07;100110.69;7353553;19;20018;-56
2023/07/30 11:03:35;;;;;;;0.00;0.00;;;;;;;19.54;61.22;100110.69;7353266;19;20074;-55
2023/07/30 11:06:01;;;;;;;0.05;0.05;;;;;;;19.59;60.51;100098.88;7349332;19;20027;-55
2023/07/30 11:08:36;;;;;;;0.10;0.10;;;;;;;19.68;59.81;100110.63;7352984;19;20040;-54
2023/07/30 11:11:02;;;;;;;0.10;0.10;;;;;;;19.67;59.60;100111.59;7354294;19;20103;-56
2023/07/30 11:13:28;;;;;;;0.10;0.10;;;;;;;19.71;59.35;100110.41;7354634;19;20775;-54
2023/07/30 11:15:54;;;;;;;0.00;0.00;;;;;;;19.76;59.61;100104.78;7355100;19;20007;-56
2023/07/30 11:18:19;;;;;;;0.10;0.10;;;;;;;19.79;60.36;100108.06;7355193;19;20013;-56
2023/07/30 11:20:45;;;;;;;0.10;0.10;;;;;;;19.84;60.31;100095.34;7325642;19;20053;-56
2023/07/30 11:23:23;;;;;;;0.10;0.10;;;;;;;19.94;60.23;100090.25;7329495;19;20014;-54
2023/07/30 11:25:49;;;;;;;0.10;0.10;;;;;;;20.03;60.50;100096.69;7347655;19;20075;-55